Terminal Aerodrome Forecast
Issued by NWS

Home | Current Version | Previous Version | Graphics & Text | Print | Product List | Glossary On
Versions: 1 2 3 4 5 6 7 8 9 10 11 12 13 14 15 16
000
FTUS43 KGRB 301338 AAA
TAFCWA
TAF AMD
KCWA 301338Z 3014/0112 35007KT P6SM SCT012 BKN035
      TEMPO 3014/3016 BKN012
     FM301800 35010G13KT P6SM SCT035
     FM010200 VRB03KT P6SM SKC=

USA.gov is the U.S. government's official web portal to all federal, state and local government web resources and services.